createdAt,value
2022-08-07T00:00:41.262Z,39.42
2022-08-07T00:02:35.168Z,39.53
2022-08-07T00:02:44.482Z,39.42
2022-08-07T00:03:47.411Z,39.53
2022-08-07T00:04:42.272Z,39.53
2022-08-07T00:05:41.222Z,39.53
2022-08-07T00:06:51.719Z,39.53
2022-08-07T00:07:42.184Z,39.53
2022-08-07T00:08:44.451Z,39.53
2022-08-07T00:09:44.513Z,39.53
2022-08-07T00:10:48.053Z,39.53
2022-08-07T00:11:53.965Z,39.53
2022-08-07T00:12:57.864Z,39.53
2022-08-07T00:13:44.896Z,39.53
2022-08-07T00:14:41.105Z,39.53
2022-08-07T00:15:46.618Z,39.53
2022-08-07T00:16:42.082Z,39.53
2022-08-07T00:17:41.080Z,39.53
2022-08-07T00:18:41.067Z,39.53
2022-08-07T00:20:01.288Z,39.53
2022-08-07T00:20:42.047Z,39.53
2022-08-07T00:21:56.057Z,39.53
2022-08-07T00:22:42.317Z,39.53
2022-08-07T00:23:42.019Z,39.53
2022-08-07T00:24:40.990Z,39.53
2022-08-07T00:25:41.530Z,39.53
2022-08-07T00:26:49.528Z,39.53
2022-08-07T00:27:52.150Z,39.53
2022-08-07T00:28:46.162Z,39.53
2022-08-07T00:29:41.992Z,39.53
2022-08-07T00:30:40.921Z,39.53
2022-08-07T00:31:42.256Z,39.53
2022-08-07T00:32:40.901Z,39.53
2022-08-07T00:33:40.920Z,39.53
2022-08-07T00:34:40.887Z,39.62
2022-08-07T00:35:40.875Z,39.53
2022-08-07T00:36:42.693Z,39.53
2022-08-07T00:37:48.192Z,39.53
2022-08-07T00:38:41.864Z,39.53
2022-08-07T00:39:45.248Z,39.62
2022-08-07T00:40:41.805Z,39.62
2022-08-07T00:41:45.375Z,39.53
2022-08-07T00:42:41.786Z,39.62
2022-08-07T00:44:00.821Z,39.62
2022-08-07T00:44:41.767Z,39.62
2022-08-07T00:45:40.772Z,39.62
2022-08-07T00:46:40.751Z,39.62
2022-08-07T00:48:07.884Z,39.62
2022-08-07T00:48:41.979Z,39.62
2022-08-07T00:50:20.637Z,39.62
2022-08-07T00:50:50.347Z,39.62
2022-08-07T00:51:57.492Z,39.62
2022-08-07T00:52:41.678Z,39.62
2022-08-07T00:53:50.852Z,39.62
2022-08-07T00:54:41.687Z,39.62
2022-08-07T00:56:02.683Z,39.62
2022-08-07T00:56:41.639Z,39.62
2022-08-07T00:57:55.212Z,39.62
2022-08-07T00:58:41.625Z,39.62
2022-08-07T00:59:40.604Z,39.62
2022-08-07T01:00:54.055Z,39.62
2022-08-07T01:01:44.769Z,39.62
2022-08-07T01:02:40.563Z,39.62
2022-08-07T01:03:57.202Z,39.62
2022-08-07T01:04:43.507Z,39.62
2022-08-07T01:05:40.543Z,39.62
2022-08-07T01:06:41.536Z,39.62
2022-08-07T01:07:40.507Z,39.72
2022-08-07T01:08:43.008Z,39.72
2022-08-07T01:10:04.862Z,39.72
2022-08-07T01:10:47.617Z,39.62
2022-08-07T01:12:09.098Z,39.62
2022-08-07T01:12:44.797Z,39.72
2022-08-07T01:13:41.458Z,39.72
2022-08-07T01:14:41.438Z,39.72
2022-08-07T01:16:05.759Z,39.72
2022-08-07T01:16:43.156Z,39.72
2022-08-07T01:17:41.398Z,39.62
2022-08-07T01:18:40.400Z,39.62
2022-08-07T01:19:44.934Z,39.62
2022-08-07T01:20:42.976Z,39.72
2022-08-07T01:21:40.358Z,39.72
2022-08-07T01:22:47.055Z,39.74
2022-08-07T01:23:43.793Z,39.74
2022-08-07T01:24:41.313Z,39.74
2022-08-07T01:25:56.172Z,39.74
2022-08-07T01:26:41.302Z,39.64
2022-08-07T01:27:50.885Z,39.64
2022-08-07T01:28:41.294Z,39.74
2022-08-07T01:29:41.273Z,39.74
2022-08-07T01:30:40.278Z,39.74
2022-08-07T01:31:42.382Z,39.74
2022-08-07T01:32:40.226Z,39.74
2022-08-07T01:33:55.701Z,39.74
2022-08-07T01:34:41.222Z,39.74
2022-08-07T01:35:54.166Z,39.74
2022-08-07T01:36:41.187Z,39.74
2022-08-07T01:37:40.178Z,39.74
2022-08-07T01:38:40.185Z,39.74
2022-08-07T01:39:41.247Z,39.74
2022-08-07T01:40:41.139Z,39.74
2022-08-07T01:41:55.117Z,39.74
2022-08-07T01:42:57.653Z,39.74
2022-08-07T01:43:41.119Z,39.74
2022-08-07T01:44:40.091Z,39.74
2022-08-07T01:45:40.310Z,39.84
2022-08-07T01:46:40.126Z,39.74
2022-08-07T01:48:20.137Z,39.84
2022-08-07T01:48:41.265Z,39.84
2022-08-07T01:49:40.032Z,39.74
2022-08-07T01:50:42.909Z,39.74
2022-08-07T01:52:02.206Z,39.74
2022-08-07T01:52:49.601Z,39.84
2022-08-07T01:54:09.206Z,39.74
2022-08-07T01:54:40.996Z,39.84
2022-08-07T01:55:39.982Z,39.84
2022-08-07T01:56:39.985Z,39.84
2022-08-07T01:58:06.546Z,39.74
2022-08-07T01:58:41.168Z,39.74
2022-08-07T01:59:40.038Z,39.74
2022-08-07T02:00:49.082Z,39.74
2022-08-07T02:01:59.708Z,39.74
2022-08-07T02:03:11.935Z,39.84
2022-08-07T02:03:49.021Z,39.74
2022-08-07T02:04:56.184Z,39.74
2022-08-07T02:05:47.724Z,39.74
2022-08-07T02:06:40.879Z,39.74
2022-08-07T02:07:50.146Z,39.84
2022-08-07T02:08:40.850Z,39.74
2022-08-07T02:09:52.807Z,39.84
2022-08-07T02:12:03.826Z,39.74
2022-08-07T02:12:52.438Z,39.74
2022-08-07T02:13:57.393Z,39.74
2022-08-07T02:14:52.398Z,39.84
2022-08-07T02:15:52.851Z,39.74
2022-08-07T02:16:51.377Z,39.74
2022-08-07T02:17:51.660Z,39.74
2022-08-07T02:18:51.372Z,39.84
2022-08-07T02:20:05.279Z,39.74
2022-08-07T02:20:55.882Z,39.74
2022-08-07T02:21:56.018Z,39.84
2022-08-07T02:22:52.946Z,39.74
2022-08-07T02:23:51.303Z,39.74
2022-08-07T02:24:51.300Z,39.84
2022-08-07T02:26:32.022Z,39.84
2022-08-07T02:26:52.264Z,39.84
2022-08-07T02:27:52.302Z,39.84
2022-08-07T02:28:51.252Z,39.74
2022-08-07T02:29:54.522Z,39.84
2022-08-07T02:30:51.238Z,39.84
2022-08-07T02:31:51.216Z,39.84
2022-08-07T02:33:03.962Z,39.84
2022-08-07T02:34:01.857Z,39.84
2022-08-07T02:34:52.176Z,39.74
2022-08-07T02:36:28.415Z,39.74
2022-08-07T02:36:52.156Z,39.84
2022-08-07T02:37:51.157Z,39.84
2022-08-07T02:38:56.996Z,39.84
2022-08-07T02:40:02.112Z,39.74
2022-08-07T02:40:55.969Z,39.84
2022-08-07T02:41:54.880Z,39.84
2022-08-07T02:42:52.099Z,39.84
2022-08-07T02:43:51.080Z,39.84
2022-08-07T02:44:51.925Z,39.84
2022-08-07T02:46:00.420Z,39.74
2022-08-07T02:46:52.859Z,39.84
2022-08-07T02:47:51.103Z,39.74
2022-08-07T02:48:55.087Z,39.76
2022-08-07T02:49:58.313Z,39.84
2022-08-07T02:50:52.087Z,39.76
2022-08-07T02:51:52.277Z,39.74
2022-08-07T02:52:50.982Z,39.86
2022-08-07T02:53:51.092Z,39.86
2022-08-07T02:54:52.069Z,39.74
2022-08-07T02:56:03.977Z,39.86
2022-08-07T02:56:51.935Z,39.86
2022-08-07T02:57:50.933Z,39.86
2022-08-07T02:58:50.924Z,39.86
2022-08-07T02:59:54.854Z,39.86
2022-08-07T03:00:50.966Z,39.76
2022-08-07T03:01:52.268Z,39.86
2022-08-07T03:02:54.086Z,39.76
2022-08-07T03:03:51.030Z,39.76
2022-08-07T03:04:50.866Z,39.86
2022-08-07T03:05:50.837Z,39.86
2022-08-07T03:06:50.817Z,39.86
2022-08-07T03:08:07.340Z,39.86
2022-08-07T03:08:51.844Z,39.76
2022-08-07T03:09:52.512Z,39.76
2022-08-07T03:10:50.779Z,39.86
2022-08-07T03:11:52.351Z,39.86
2022-08-07T03:12:51.908Z,39.86
2022-08-07T03:13:50.816Z,39.86
2022-08-07T03:14:52.289Z,39.86
2022-08-07T03:15:55.894Z,39.86
2022-08-07T03:16:52.482Z,39.86
2022-08-07T03:17:52.994Z,39.86
2022-08-07T03:18:50.704Z,39.86
2022-08-07T03:19:54.510Z,39.76
2022-08-07T03:20:50.673Z,39.86
2022-08-07T03:21:51.181Z,39.76
2022-08-07T03:22:50.652Z,39.86
2022-08-07T03:24:18.116Z,39.86
2022-08-07T03:24:51.646Z,39.86
2022-08-07T03:25:56.748Z,39.86
2022-08-07T03:26:58.885Z,39.86
2022-08-07T03:28:09.109Z,39.86
2022-08-07T03:28:51.813Z,39.86
2022-08-07T03:29:50.777Z,39.86
2022-08-07T03:30:50.567Z,39.86
2022-08-07T03:31:50.614Z,39.86
2022-08-07T03:32:58.410Z,39.86
2022-08-07T03:33:51.519Z,39.86
2022-08-07T03:35:16.851Z,39.86
2022-08-07T03:35:51.501Z,39.86
2022-08-07T03:36:50.506Z,39.86
2022-08-07T03:37:53.934Z,39.86
2022-08-07T03:38:50.472Z,39.86
2022-08-07T03:39:59.741Z,39.86
2022-08-07T03:40:57.153Z,39.96
2022-08-07T03:41:51.441Z,39.86
2022-08-07T03:42:50.884Z,39.86
2022-08-07T03:43:57.288Z,39.86
2022-08-07T03:44:53.358Z,39.86
2022-08-07T03:45:50.382Z,39.96
2022-08-07T03:47:11.043Z,39.96
2022-08-07T03:47:51.768Z,39.96
2022-08-07T03:49:02.421Z,39.86
2022-08-07T03:49:53.517Z,39.86
2022-08-07T03:50:56.223Z,39.96
2022-08-07T03:52:01.309Z,39.76
2022-08-07T03:52:51.305Z,39.86
2022-08-07T03:54:32.947Z,39.96
2022-08-07T03:54:54.888Z,39.96
2022-08-07T03:55:58.328Z,39.86
2022-08-07T03:57:03.622Z,39.96
2022-08-07T03:58:34.648Z,39.96
2022-08-07T03:59:07.832Z,39.96
2022-08-07T04:00:01.858Z,39.96
2022-08-07T04:00:53.303Z,39.96
2022-08-07T04:01:50.283Z,39.96
2022-08-07T04:02:50.209Z,39.86
2022-08-07T04:03:55.389Z,39.86
2022-08-07T04:04:51.181Z,39.96
2022-08-07T04:05:50.169Z,39.96
2022-08-07T04:06:50.800Z,39.86
2022-08-07T04:07:50.395Z,39.86
2022-08-07T04:08:50.139Z,39.96
2022-08-07T04:09:50.432Z,39.96
2022-08-07T04:10:54.304Z,39.96
2022-08-07T04:12:20.804Z,39.96
2022-08-07T04:12:51.082Z,39.86
2022-08-07T04:14:10.927Z,39.86
2022-08-07T04:14:51.063Z,39.86
2022-08-07T04:15:50.094Z,39.96
2022-08-07T04:16:58.383Z,39.86
2022-08-07T04:18:31.128Z,39.86
2022-08-07T04:18:59.704Z,39.96
2022-08-07T04:19:54.406Z,39.96
2022-08-07T04:20:54.775Z,39.86
2022-08-07T04:21:59.034Z,39.96
2022-08-07T04:22:53.625Z,39.96
2022-08-07T04:24:03.276Z,39.96
2022-08-07T04:24:50.957Z,39.86
2022-08-07T04:25:49.949Z,39.86
2022-08-07T04:26:49.955Z,39.86
2022-08-07T04:28:00.475Z,39.86
2022-08-07T04:28:50.919Z,39.86
2022-08-07T04:30:01.180Z,39.86
2022-08-07T04:30:56.987Z,39.86
2022-08-07T04:32:03.068Z,39.86
2022-08-07T04:32:58.489Z,39.96
2022-08-07T04:33:55.156Z,39.76
2022-08-07T04:34:50.840Z,39.86
2022-08-07T04:35:50.413Z,39.86
2022-08-07T04:36:49.842Z,39.86
2022-08-07T04:38:03.257Z,39.86
2022-08-07T04:38:50.813Z,39.86
2022-08-07T04:39:50.039Z,39.76
2022-08-07T04:40:51.906Z,39.86
2022-08-07T04:41:50.927Z,39.86
2022-08-07T04:42:52.853Z,39.76
2022-08-07T04:44:13.061Z,39.86
2022-08-07T04:45:02.630Z,39.76
2022-08-07T04:46:00.444Z,39.76
2022-08-07T04:46:53.957Z,39.76
2022-08-07T04:48:01.205Z,39.76
2022-08-07T04:48:51.077Z,39.76
2022-08-07T04:49:57.709Z,39.76
2022-08-07T04:50:52.852Z,39.76
2022-08-07T04:51:49.657Z,39.76
2022-08-07T04:52:51.986Z,39.76
2022-08-07T04:54:01.507Z,39.76
2022-08-07T04:54:50.900Z,39.76
2022-08-07T04:58:12.540Z,39.76
2022-08-07T04:58:12.972Z,39.76
2022-08-07T04:58:16.377Z,39.76
2022-08-07T05:00:11.306Z,39.76
2022-08-07T05:00:50.591Z,39.76
2022-08-07T05:01:50.608Z,39.76
2022-08-07T05:02:49.875Z,39.76
2022-08-07T05:04:06.371Z,39.76
2022-08-07T05:04:50.639Z,39.76
2022-08-07T05:05:52.586Z,39.76
2022-08-07T05:06:51.588Z,39.76
2022-08-07T05:07:51.607Z,39.76
2022-08-07T05:09:01.153Z,39.76
2022-08-07T05:09:50.443Z,39.76
2022-08-07T05:10:49.444Z,39.76
2022-08-07T05:11:58.933Z,39.76
2022-08-07T05:12:52.982Z,39.76
2022-08-07T05:14:53.680Z,39.76
2022-08-07T05:14:55.290Z,39.76
2022-08-07T05:15:50.547Z,39.76
2022-08-07T05:16:52.591Z,39.76
2022-08-07T05:17:52.503Z,39.86
2022-08-07T05:18:50.357Z,39.76
2022-08-07T05:19:49.338Z,39.76
2022-08-07T05:20:49.344Z,39.76
2022-08-07T05:21:59.885Z,39.76
2022-08-07T05:22:50.371Z,39.86
2022-08-07T05:23:49.297Z,39.76
2022-08-07T05:24:50.396Z,39.76
2022-08-07T05:26:10.769Z,39.76
2022-08-07T05:26:50.292Z,39.76
2022-08-07T05:28:03.104Z,39.76
2022-08-07T05:28:50.527Z,39.76
2022-08-07T05:29:52.103Z,39.76
2022-08-07T05:30:49.238Z,39.86
2022-08-07T05:31:52.876Z,39.86
2022-08-07T05:32:49.194Z,39.76
2022-08-07T05:33:51.381Z,39.76
2022-08-07T05:34:50.182Z,39.86
2022-08-07T05:35:49.163Z,39.86
2022-08-07T05:36:52.657Z,39.76
2022-08-07T05:38:08.581Z,39.86
2022-08-07T05:38:58.400Z,39.76
2022-08-07T05:40:16.759Z,39.86
2022-08-07T05:40:50.540Z,39.86
2022-08-07T05:42:02.262Z,39.86
2022-08-07T05:42:56.075Z,39.86
2022-08-07T05:44:12.050Z,39.86
2022-08-07T05:44:52.926Z,39.86
2022-08-07T05:45:50.058Z,39.86
2022-08-07T05:46:51.310Z,39.86
2022-08-07T05:48:01.711Z,39.86
2022-08-07T05:48:58.312Z,39.86
2022-08-07T05:49:50.014Z,39.86
2022-08-07T05:50:50.662Z,39.86
2022-08-07T05:51:48.998Z,39.86
2022-08-07T05:52:48.971Z,39.86
2022-08-07T05:54:13.487Z,39.86
2022-08-07T05:54:56.011Z,39.96
2022-08-07T05:56:03.102Z,39.86
2022-08-07T05:56:51.452Z,39.86
2022-08-07T05:57:48.912Z,39.86
2022-08-07T05:58:52.330Z,39.96
2022-08-07T05:59:57.866Z,39.96
2022-08-07T06:00:50.897Z,39.96
2022-08-07T06:01:48.987Z,39.96
2022-08-07T06:02:48.872Z,39.96
2022-08-07T06:03:56.527Z,39.96
2022-08-07T06:04:50.779Z,39.96
2022-08-07T06:05:49.262Z,40.06
2022-08-07T06:06:56.746Z,39.96
2022-08-07T06:08:29.360Z,39.96
2022-08-07T06:08:49.806Z,39.96
2022-08-07T06:10:05.342Z,39.96
2022-08-07T06:10:51.255Z,40.06
2022-08-07T06:11:49.776Z,40.06
2022-08-07T06:12:48.747Z,40.06
2022-08-07T06:14:13.593Z,40.06
2022-08-07T06:14:49.936Z,40.06
2022-08-07T06:15:49.918Z,40.06
2022-08-07T06:16:50.734Z,40.06
2022-08-07T06:17:53.759Z,40.06
2022-08-07T06:18:51.682Z,40.06
2022-08-07T06:20:03.378Z,40.06
2022-08-07T06:22:11.841Z,40.06
2022-08-07T06:22:14.805Z,40.06
2022-08-07T06:23:01.799Z,40.06
2022-08-07T06:24:45.530Z,40.06
2022-08-07T06:24:57.729Z,40.06
2022-08-07T06:25:54.455Z,40.06
2022-08-07T06:26:49.611Z,40.16
2022-08-07T06:28:01.546Z,40.16
2022-08-07T06:28:49.584Z,40.16
2022-08-07T06:29:48.555Z,40.16
2022-08-07T06:30:50.676Z,40.06
2022-08-07T06:31:50.490Z,40.06
2022-08-07T06:32:48.534Z,40.16
2022-08-07T06:33:48.514Z,40.16
2022-08-07T06:34:48.505Z,40.16
2022-08-07T06:36:06.602Z,40.16
2022-08-07T06:36:52.162Z,40.16
2022-08-07T06:37:48.465Z,40.16
2022-08-07T06:38:59.415Z,40.16
2022-08-07T06:40:18.265Z,40.16
2022-08-07T06:40:49.511Z,40.16
2022-08-07T06:42:01.853Z,40.16
2022-08-07T06:42:49.419Z,40.16
2022-08-07T06:44:01.781Z,40.16
2022-08-07T06:44:51.073Z,40.16
2022-08-07T06:45:48.391Z,40.16
2022-08-07T06:46:53.473Z,40.16
2022-08-07T06:47:58.688Z,40.16
2022-08-07T06:48:49.351Z,40.26
2022-08-07T06:49:51.865Z,40.26
2022-08-07T06:50:48.339Z,40.26
2022-08-07T06:51:50.081Z,40.26
2022-08-07T06:52:48.311Z,40.16
2022-08-07T06:55:28.452Z,40.26
2022-08-07T06:55:33.269Z,40.26
2022-08-07T06:56:01.620Z,40.26
2022-08-07T06:56:49.958Z,40.26
2022-08-07T06:57:50.946Z,40.26
2022-08-07T07:00:12.384Z,40.26
2022-08-07T07:00:14.843Z,40.26
2022-08-07T07:00:53.099Z,40.26
2022-08-07T07:01:50.743Z,40.26
2022-08-07T07:02:54.463Z,40.26
2022-08-07T07:03:55.113Z,40.36
2022-08-07T07:04:54.705Z,40.26
2022-08-07T07:06:03.343Z,40.36
2022-08-07T07:07:00.189Z,40.36
2022-08-07T07:08:00.107Z,40.36
2022-08-07T07:08:49.146Z,40.36
2022-08-07T07:09:48.117Z,40.36
2022-08-07T07:10:57.073Z,40.36
2022-08-07T07:12:08.415Z,40.36
2022-08-07T07:12:50.353Z,40.36
2022-08-07T07:13:57.710Z,40.36
2022-08-07T07:14:49.061Z,40.36
2022-08-07T07:15:51.699Z,40.36
2022-08-07T07:16:51.004Z,40.36
2022-08-07T07:17:50.509Z,40.36
2022-08-07T07:18:48.769Z,40.36
2022-08-07T07:19:57.605Z,40.36
2022-08-07T07:20:49.010Z,40.36
2022-08-07T07:22:04.546Z,40.36
2022-08-07T07:24:06.298Z,40.36
2022-08-07T07:24:10.385Z,40.36
2022-08-07T07:24:57.051Z,40.36
2022-08-07T07:26:34.938Z,40.36
2022-08-07T07:26:51.741Z,40.46
2022-08-07T07:27:56.346Z,40.36
2022-08-07T07:29:40.024Z,40.36
2022-08-07T07:30:09.334Z,40.46
2022-08-07T07:30:48.896Z,40.46
2022-08-07T07:31:47.906Z,40.46
2022-08-07T07:32:47.858Z,40.46
2022-08-07T07:33:54.897Z,40.46
2022-08-07T07:34:48.875Z,40.46
2022-08-07T07:35:54.626Z,40.46
2022-08-07T07:36:53.879Z,40.46
2022-08-07T07:37:59.115Z,40.46
2022-08-07T07:38:48.801Z,40.46
2022-08-07T07:39:54.754Z,40.46
2022-08-07T07:40:48.779Z,40.46
2022-08-07T07:42:02.158Z,40.46
2022-08-07T07:42:53.837Z,40.46
2022-08-07T07:44:16.737Z,40.46
2022-08-07T07:44:49.539Z,40.46
2022-08-07T07:46:37.704Z,40.46
2022-08-07T07:46:55.187Z,40.56
2022-08-07T07:47:52.496Z,40.56
2022-08-07T07:48:47.696Z,40.46
2022-08-07T07:50:34.754Z,40.56
2022-08-07T07:50:48.663Z,40.56
2022-08-07T07:51:58.066Z,40.46
2022-08-07T07:52:48.658Z,40.56
2022-08-07T07:53:51.849Z,40.56
2022-08-07T07:54:51.173Z,40.56
2022-08-07T07:55:57.765Z,40.56
2022-08-07T07:56:48.597Z,40.56
2022-08-07T07:57:52.330Z,40.56
2022-08-07T07:58:48.583Z,40.56
2022-08-07T07:59:52.342Z,40.56
2022-08-07T08:00:53.783Z,40.56
2022-08-07T08:02:01.929Z,40.56
2022-08-07T08:03:04.585Z,40.56
2022-08-07T08:04:09.262Z,40.56
2022-08-07T08:04:50.455Z,40.56
2022-08-07T08:05:54.187Z,40.56
2022-08-07T08:06:52.219Z,40.56
2022-08-07T08:08:00.012Z,40.56
2022-08-07T08:08:48.449Z,40.56
2022-08-07T08:09:52.486Z,40.56
2022-08-07T08:10:48.465Z,40.56
2022-08-07T08:12:02.375Z,40.56
2022-08-07T08:12:59.063Z,40.56
2022-08-07T08:13:53.741Z,40.56
2022-08-07T08:14:48.392Z,40.56
2022-08-07T08:15:58.546Z,40.56
2022-08-07T08:16:50.482Z,40.56
2022-08-07T08:17:58.148Z,40.56
2022-08-07T08:18:50.423Z,40.56
2022-08-07T08:20:19.227Z,40.56
2022-08-07T08:20:48.334Z,40.56
2022-08-07T08:22:00.442Z,40.56
2022-08-07T08:22:56.089Z,40.56
2022-08-07T08:23:48.295Z,40.56
2022-08-07T08:24:47.275Z,40.56
2022-08-07T08:25:49.171Z,40.56
2022-08-07T08:26:50.593Z,40.56
2022-08-07T08:27:56.542Z,40.56
2022-08-07T08:28:48.245Z,40.56
2022-08-07T08:29:54.491Z,40.56
2022-08-07T08:30:50.839Z,40.56
2022-08-07T08:32:17.385Z,40.56
2022-08-07T08:32:49.150Z,40.56
2022-08-07T08:33:49.630Z,40.56
2022-08-07T08:34:47.170Z,40.56
2022-08-07T08:35:49.961Z,40.56
2022-08-07T08:36:47.150Z,40.56
2022-08-07T08:38:01.578Z,40.56
2022-08-07T08:38:48.120Z,40.56
2022-08-07T08:39:54.963Z,40.56
2022-08-07T08:40:48.116Z,40.56
2022-08-07T08:41:58.546Z,40.56
2022-08-07T08:42:48.079Z,40.56
2022-08-07T08:43:56.075Z,40.56
2022-08-07T08:44:48.061Z,40.56
2022-08-07T08:45:59.178Z,40.56
2022-08-07T08:46:48.033Z,40.56
2022-08-07T08:47:51.850Z,40.56
2022-08-07T08:48:51.020Z,40.56
2022-08-07T08:50:02.413Z,40.56
2022-08-07T08:50:47.994Z,40.56
2022-08-07T08:52:13.100Z,40.56
2022-08-07T08:52:53.621Z,40.56
2022-08-07T08:53:47.956Z,40.56
2022-08-07T08:54:46.946Z,40.56
2022-08-07T08:55:54.560Z,40.56
2022-08-07T08:56:48.062Z,40.56
2022-08-07T08:57:46.924Z,40.56
2022-08-07T08:58:46.907Z,40.56
2022-08-07T08:59:48.084Z,40.56
2022-08-07T09:00:48.636Z,40.46
2022-08-07T09:01:49.430Z,40.56
2022-08-07T09:02:49.634Z,40.56
2022-08-07T09:03:49.702Z,40.56
2022-08-07T09:04:46.854Z,40.56
2022-08-07T09:05:46.837Z,40.56
2022-08-07T09:06:48.096Z,40.56
2022-08-07T09:07:58.130Z,40.56
2022-08-07T09:08:47.812Z,40.46
2022-08-07T09:09:47.370Z,40.46
2022-08-07T09:10:46.783Z,40.46
2022-08-07T09:11:54.990Z,40.46
2022-08-07T09:12:53.021Z,40.56
2022-08-07T09:13:47.754Z,40.46
2022-08-07T09:14:50.965Z,40.46
2022-08-07T09:16:22.698Z,40.46
2022-08-07T09:16:47.789Z,40.46
2022-08-07T09:17:59.656Z,40.46
2022-08-07T09:18:53.250Z,40.46
2022-08-07T09:19:53.759Z,40.46
2022-08-07T09:20:57.871Z,40.46
2022-08-07T09:22:10.057Z,40.46
2022-08-07T09:24:30.645Z,40.46
2022-08-07T09:24:31.059Z,40.46
2022-08-07T09:24:59.654Z,40.46
2022-08-07T09:25:54.212Z,40.46
2022-08-07T09:26:50.849Z,40.46
2022-08-07T09:27:59.832Z,40.46
2022-08-07T09:30:00.583Z,40.36
2022-08-07T09:30:03.472Z,40.46
2022-08-07T09:30:49.712Z,40.46
2022-08-07T09:31:49.288Z,40.46
2022-08-07T09:32:46.656Z,40.46
2022-08-07T09:33:57.538Z,40.46
2022-08-07T09:34:53.799Z,40.46
2022-08-07T09:36:03.156Z,40.46
2022-08-07T09:36:49.695Z,40.46
2022-08-07T09:37:48.454Z,40.46
2022-08-07T09:38:50.276Z,40.46
2022-08-07T09:39:54.076Z,40.46
2022-08-07T09:40:47.565Z,40.36
2022-08-07T09:41:58.432Z,40.36
2022-08-07T09:42:47.634Z,40.46
2022-08-07T09:44:05.740Z,40.36
2022-08-07T09:47:50.341Z,40.36
2022-08-07T09:47:51.886Z,40.36
2022-08-07T09:47:52.258Z,40.36
2022-08-07T09:48:00.352Z,40.36
2022-08-07T09:50:01.671Z,40.36
2022-08-07T09:50:02.933Z,40.36
2022-08-07T09:50:47.337Z,40.36
2022-08-07T09:52:10.521Z,40.36
2022-08-07T09:52:48.567Z,40.36
2022-08-07T09:53:55.119Z,40.36
2022-08-07T09:54:47.280Z,40.36
2022-08-07T09:56:03.417Z,40.36
2022-08-07T09:56:48.045Z,40.36
2022-08-07T09:57:46.484Z,40.36
2022-08-07T09:58:48.810Z,40.36
2022-08-07T10:00:00.622Z,40.36
2022-08-07T10:00:47.225Z,40.36
2022-08-07T10:01:51.957Z,40.36
2022-08-07T10:02:55.285Z,40.36
2022-08-07T10:04:03.606Z,40.36
2022-08-07T10:04:53.147Z,40.36
2022-08-07T10:05:59.800Z,40.36
2022-08-07T10:06:53.864Z,40.36
2022-08-07T10:07:52.718Z,40.36
2022-08-07T10:08:49.707Z,40.36
2022-08-07T10:10:00.136Z,40.26
2022-08-07T10:11:59.476Z,40.26
2022-08-07T10:12:02.143Z,40.26
2022-08-07T10:12:53.171Z,40.26
2022-08-07T10:14:00.881Z,40.26
2022-08-07T10:14:47.502Z,40.26
2022-08-07T10:15:47.310Z,40.26
2022-08-07T10:16:46.027Z,40.26
2022-08-07T10:18:01.595Z,40.26
2022-08-07T10:18:47.018Z,40.26
2022-08-07T10:19:46.005Z,40.26
2022-08-07T10:20:46.008Z,40.26
2022-08-07T10:22:14.698Z,40.26
2022-08-07T10:22:46.979Z,40.26
2022-08-07T10:24:06.925Z,40.26
2022-08-07T10:24:47.730Z,40.26
2022-08-07T10:25:45.950Z,40.16
2022-08-07T10:26:53.132Z,40.26
2022-08-07T10:27:47.558Z,40.26
2022-08-07T10:28:49.757Z,40.26
2022-08-07T10:29:51.694Z,40.16
2022-08-07T10:30:46.871Z,40.26
2022-08-07T10:31:47.357Z,40.16
2022-08-07T10:32:52.940Z,40.16
2022-08-07T10:34:05.532Z,40.16
2022-08-07T10:34:48.303Z,40.16
2022-08-07T10:35:56.281Z,40.16
2022-08-07T10:36:47.560Z,40.16
2022-08-07T10:38:00.655Z,40.16
2022-08-07T10:38:49.433Z,40.16
2022-08-07T10:40:03.563Z,40.16
2022-08-07T10:40:47.547Z,40.16
2022-08-07T10:41:51.749Z,40.16
2022-08-07T10:42:46.747Z,40.16
2022-08-07T10:43:45.742Z,40.16
2022-08-07T10:44:45.737Z,40.16
2022-08-07T10:45:58.253Z,40.16
2022-08-07T10:46:46.709Z,40.16
2022-08-07T10:47:52.892Z,40.16
2022-08-07T10:48:46.676Z,40.16
2022-08-07T10:49:50.861Z,40.16
2022-08-07T10:50:50.331Z,40.16
2022-08-07T10:52:01.815Z,40.06
2022-08-07T10:52:51.221Z,40.16
2022-08-07T10:53:45.631Z,40.06
2022-08-07T10:54:53.421Z,40.16
2022-08-07T10:55:46.608Z,40.16
2022-08-07T10:56:45.590Z,40.16
2022-08-07T10:57:45.582Z,40.16
2022-08-07T10:58:47.504Z,40.16
2022-08-07T10:59:47.408Z,40.16
2022-08-07T11:00:50.516Z,40.16
2022-08-07T11:01:51.918Z,40.16
2022-08-07T11:02:49.414Z,40.16
2022-08-07T11:03:54.983Z,40.16
2022-08-07T11:04:46.520Z,40.06
2022-08-07T11:05:50.994Z,40.06
2022-08-07T11:06:46.645Z,40.06
2022-08-07T11:07:59.064Z,40.06
2022-08-07T11:08:46.455Z,40.06
2022-08-07T11:10:08.756Z,40.06
2022-08-07T11:10:49.858Z,40.06
2022-08-07T11:11:51.967Z,40.06
2022-08-07T11:12:48.999Z,40.06
2022-08-07T11:14:45.488Z,40.06
2022-08-07T11:14:57.283Z,40.06
2022-08-07T11:15:54.508Z,40.06
2022-08-07T11:16:51.033Z,40.06
2022-08-07T11:17:46.461Z,40.06
2022-08-07T11:18:45.410Z,40.06
2022-08-07T11:19:46.456Z,40.06
2022-08-07T11:20:45.323Z,40.06
2022-08-07T11:21:45.311Z,40.06
2022-08-07T11:22:46.443Z,40.06
2022-08-07T11:23:45.409Z,40.06
2022-08-07T11:24:45.768Z,40.06
2022-08-07T11:25:50.049Z,40.06
2022-08-07T11:26:50.102Z,40.06
2022-08-07T11:28:01.399Z,40.06
2022-08-07T11:28:53.480Z,40.06
2022-08-07T11:29:47.430Z,40.06
2022-08-07T11:30:45.211Z,39.96
2022-08-07T11:31:45.219Z,40.06
2022-08-07T11:32:45.205Z,39.96
2022-08-07T11:33:54.027Z,40.06
2022-08-07T11:34:46.193Z,40.06
2022-08-07T11:35:59.618Z,39.96
2022-08-07T11:36:46.147Z,39.96
2022-08-07T11:37:58.217Z,39.96
2022-08-07T11:38:50.607Z,39.96
2022-08-07T11:39:59.757Z,39.96
2022-08-07T11:40:49.738Z,39.96
2022-08-07T11:42:02.522Z,39.96
2022-08-07T11:42:46.089Z,39.96
2022-08-07T11:44:10.711Z,39.96
2022-08-07T11:44:52.752Z,39.96
2022-08-07T11:45:49.898Z,39.96
2022-08-07T11:46:46.038Z,39.96
2022-08-07T11:47:59.132Z,39.96
2022-08-07T11:49:04.167Z,39.96
2022-08-07T11:50:18.755Z,39.96
2022-08-07T11:50:58.033Z,39.96
2022-08-07T11:51:46.798Z,39.94
2022-08-07T11:52:44.992Z,39.96
2022-08-07T11:54:01.166Z,39.96
2022-08-07T11:54:54.462Z,39.86
2022-08-07T11:56:25.618Z,39.84
2022-08-07T11:56:45.928Z,39.84
2022-08-07T11:58:00.372Z,39.84
2022-08-07T11:58:49.725Z,39.84
2022-08-07T12:00:10.576Z,39.86
2022-08-07T12:00:53.625Z,39.84
2022-08-07T12:02:00.476Z,39.84
2022-08-07T12:02:52.423Z,39.86
2022-08-07T12:03:46.515Z,39.84
2022-08-07T12:04:45.786Z,39.84
2022-08-07T12:05:48.870Z,39.86
2022-08-07T12:06:50.257Z,39.84
2022-08-07T12:07:53.436Z,39.84
2022-08-07T12:08:45.834Z,39.84
2022-08-07T12:09:46.103Z,39.74
2022-08-07T12:10:44.759Z,39.74
2022-08-07T12:12:09.639Z,39.74
2022-08-07T12:12:45.758Z,39.74
2022-08-07T12:13:47.576Z,39.64
2022-08-07T12:14:44.743Z,39.64
2022-08-07T12:16:05.766Z,39.74
2022-08-07T12:16:45.693Z,39.74
2022-08-07T12:17:59.589Z,39.74
2022-08-07T12:18:45.775Z,39.74
2022-08-07T12:20:02.762Z,39.74
2022-08-07T12:20:45.660Z,39.74
2022-08-07T12:22:35.790Z,39.74
2022-08-07T12:22:55.895Z,39.74
2022-08-07T12:24:07.741Z,39.64
2022-08-07T12:24:45.623Z,39.64
2022-08-07T12:26:02.915Z,39.64
2022-08-07T12:26:49.107Z,39.64
2022-08-07T12:28:09.646Z,39.64
2022-08-07T12:28:45.574Z,39.64
2022-08-07T12:29:44.568Z,39.64
2022-08-07T12:30:46.879Z,39.64
2022-08-07T12:32:02.309Z,39.64
2022-08-07T12:32:45.526Z,39.64
2022-08-07T12:34:00.780Z,39.64
2022-08-07T12:34:49.212Z,39.64
2022-08-07T12:35:48.161Z,39.54
2022-08-07T12:36:49.355Z,39.54
2022-08-07T12:38:11.172Z,39.54
2022-08-07T12:38:47.419Z,39.54
2022-08-07T12:39:51.282Z,39.54
2022-08-07T12:40:47.183Z,39.64
2022-08-07T12:41:51.652Z,39.54
2022-08-07T12:42:54.875Z,39.54
2022-08-07T12:44:03.046Z,39.54
2022-08-07T12:44:45.457Z,39.54
2022-08-07T12:45:44.374Z,39.54
2022-08-07T12:46:46.266Z,39.54
2022-08-07T12:47:44.353Z,39.54
2022-08-07T12:48:52.889Z,39.54
2022-08-07T12:49:51.715Z,39.54
2022-08-07T12:50:48.921Z,39.54
2022-08-07T12:51:50.999Z,39.54
2022-08-07T12:52:46.215Z,39.54
2022-08-07T12:54:23.999Z,39.54
2022-08-07T12:54:54.248Z,39.54